createdAt,value
2023-01-30T00:00:15.728Z,82.19
2023-01-30T00:01:15.692Z,82.31
2023-01-30T00:02:07.236Z,82.49
2023-01-30T00:02:58.866Z,82.45
2023-01-30T00:03:50.302Z,82.46
2023-01-30T00:04:41.936Z,82.50
2023-01-30T00:05:33.401Z,82.35
2023-01-30T00:06:25.647Z,82.52
2023-01-30T00:07:17.538Z,82.67
2023-01-30T00:08:09.027Z,82.65
2023-01-30T00:09:00.458Z,82.78
2023-01-30T00:09:51.874Z,82.64
2023-01-30T00:10:44.491Z,82.73
2023-01-30T00:11:36.134Z,82.34
2023-01-30T00:12:27.925Z,82.42
2023-01-30T00:13:19.411Z,82.35
2023-01-30T00:14:11.098Z,82.33
2023-01-30T00:15:02.538Z,82.45
2023-01-30T00:15:54.481Z,82.35
2023-01-30T00:16:47.415Z,82.67
2023-01-30T00:17:38.850Z,82.72
2023-01-30T00:18:31.185Z,82.80
2023-01-30T00:19:22.934Z,82.70
2023-01-30T00:20:15.797Z,82.75
2023-01-30T00:21:09.986Z,83.01
2023-01-30T00:22:01.473Z,83.08
2023-01-30T00:23:00.905Z,83.08
2023-01-30T00:23:52.774Z,83.71
2023-01-30T00:24:44.539Z,83.32
2023-01-30T00:25:36.538Z,83.52
2023-01-30T00:26:28.078Z,83.93
2023-01-30T00:27:19.746Z,84.06
2023-01-30T00:28:11.157Z,83.91
2023-01-30T00:29:02.560Z,83.99
2023-01-30T00:30:02.866Z,83.86
2023-01-30T00:30:56.917Z,83.95
2023-01-30T00:31:48.703Z,83.93
2023-01-30T00:32:41.974Z,83.73
2023-01-30T00:33:33.516Z,83.82
2023-01-30T00:34:24.971Z,83.60
2023-01-30T00:35:17.107Z,83.29
2023-01-30T00:36:10.528Z,83.10
2023-01-30T00:37:08.486Z,83.12
2023-01-30T00:38:01.602Z,83.07
2023-01-30T00:38:53.252Z,83.01
2023-01-30T00:39:44.727Z,82.68
2023-01-30T00:40:36.475Z,83.01
2023-01-30T00:41:48.072Z,82.93
2023-01-30T00:42:58.194Z,82.95
2023-01-30T00:44:08.458Z,82.94
2023-01-30T00:45:19.059Z,82.87
2023-01-30T00:46:50.696Z,82.77
2023-01-30T00:47:42.366Z,82.92
2023-01-30T00:48:33.856Z,83.00
2023-01-30T00:49:25.465Z,82.88
2023-01-30T00:50:17.039Z,83.28
2023-01-30T00:51:08.618Z,82.98
2023-01-30T00:52:02.785Z,82.79
2023-01-30T00:52:54.205Z,82.75
2023-01-30T00:53:45.684Z,82.86
2023-01-30T00:54:39.009Z,82.73
2023-01-30T00:55:30.393Z,82.67
2023-01-30T00:56:21.953Z,82.69
2023-01-30T00:57:13.388Z,82.69
2023-01-30T00:58:06.095Z,82.64
2023-01-30T00:58:57.528Z,82.82
2023-01-30T00:59:49.749Z,82.65
2023-01-30T01:00:42.273Z,82.57
2023-01-30T01:01:34.081Z,82.73
2023-01-30T01:02:26.367Z,82.73
2023-01-30T01:03:19.168Z,82.56
2023-01-30T01:04:10.779Z,82.85
2023-01-30T01:05:02.290Z,82.81
2023-01-30T01:05:53.955Z,82.66
2023-01-30T01:06:45.501Z,82.35
2023-01-30T01:07:37.391Z,82.57
2023-01-30T01:08:30.250Z,82.46
2023-01-30T01:09:21.841Z,82.42
2023-01-30T01:10:16.285Z,82.69
2023-01-30T01:11:07.937Z,82.73
2023-01-30T01:11:59.329Z,82.48
2023-01-30T01:12:54.359Z,82.60
2023-01-30T01:13:46.040Z,82.31
2023-01-30T01:14:37.737Z,82.46
2023-01-30T01:15:30.250Z,82.20
2023-01-30T01:16:23.028Z,82.37
2023-01-30T01:17:14.608Z,82.53
2023-01-30T01:18:06.410Z,82.67
2023-01-30T01:18:58.739Z,82.54
2023-01-30T01:19:50.349Z,82.65
2023-01-30T01:20:41.940Z,82.57
2023-01-30T01:21:33.412Z,82.54
2023-01-30T01:22:25.054Z,82.27
2023-01-30T01:23:16.682Z,82.55
2023-01-30T01:24:13.388Z,82.33
2023-01-30T01:25:06.478Z,81.98
2023-01-30T01:26:01.688Z,81.86
2023-01-30T01:26:53.732Z,82.01
2023-01-30T01:27:46.100Z,82.05
2023-01-30T01:28:38.750Z,81.93
2023-01-30T01:29:30.545Z,81.98
2023-01-30T01:30:23.009Z,82.30
2023-01-30T01:31:17.484Z,82.06
2023-01-30T01:32:09.190Z,82.17
2023-01-30T01:33:00.878Z,82.13
2023-01-30T01:33:52.766Z,82.28
2023-01-30T01:34:44.256Z,81.93
2023-01-30T01:35:40.923Z,82.05
2023-01-30T01:37:02.356Z,81.93
2023-01-30T01:37:44.159Z,81.72
2023-01-30T01:38:35.638Z,81.70
2023-01-30T01:39:47.126Z,81.71
2023-01-30T01:40:57.238Z,81.43
2023-01-30T01:41:48.687Z,81.40
2023-01-30T01:42:40.590Z,81.72
2023-01-30T01:43:38.529Z,81.13
2023-01-30T01:45:08.574Z,81.41
2023-01-30T01:46:14.130Z,81.52
2023-01-30T01:47:05.916Z,81.51
2023-01-30T01:48:15.766Z,81.41
2023-01-30T01:49:22.658Z,81.38
2023-01-30T01:50:21.377Z,81.46
2023-01-30T01:51:40.390Z,81.26
2023-01-30T01:52:32.986Z,81.10
2023-01-30T01:53:33.034Z,80.97
2023-01-30T01:54:44.457Z,80.65
2023-01-30T01:55:41.437Z,80.96
2023-01-30T01:56:35.974Z,80.77
2023-01-30T01:57:39.865Z,81.55
2023-01-30T01:58:52.770Z,81.18
2023-01-30T01:59:54.991Z,81.45
2023-01-30T02:00:48.573Z,81.56
2023-01-30T02:01:40.072Z,81.38
2023-01-30T02:02:34.633Z,81.48
2023-01-30T02:03:30.697Z,81.18
2023-01-30T02:04:42.308Z,81.23
2023-01-30T02:05:44.113Z,81.13
2023-01-30T02:06:38.993Z,81.11
2023-01-30T02:07:57.712Z,80.70
2023-01-30T02:08:57.260Z,80.91
2023-01-30T02:09:51.700Z,81.04
2023-01-30T02:11:03.692Z,80.62
2023-01-30T02:12:01.774Z,80.59
2023-01-30T02:12:53.451Z,80.82
2023-01-30T02:13:48.324Z,80.84
2023-01-30T02:14:41.303Z,81.24
2023-01-30T02:15:33.745Z,81.04
2023-01-30T02:16:25.355Z,81.15
2023-01-30T02:17:18.313Z,80.97
2023-01-30T02:18:10.565Z,81.01
2023-01-30T02:19:02.371Z,80.90
2023-01-30T02:20:08.341Z,81.06
2023-01-30T02:21:44.498Z,81.24
2023-01-30T02:22:54.190Z,81.07
2023-01-30T02:24:04.851Z,80.86
2023-01-30T02:25:21.376Z,80.80
2023-01-30T02:26:31.988Z,80.71
2023-01-30T02:28:04.120Z,80.85
2023-01-30T02:29:48.659Z,81.19
2023-01-30T02:30:52.676Z,80.93
2023-01-30T02:31:53.932Z,81.00
2023-01-30T02:33:01.220Z,81.09
2023-01-30T02:34:29.707Z,81.03
2023-01-30T02:35:27.500Z,81.08
2023-01-30T02:36:52.033Z,80.94
2023-01-30T02:37:57.339Z,81.22
2023-01-30T02:38:49.030Z,81.32
2023-01-30T02:40:08.798Z,81.26
2023-01-30T02:41:15.416Z,80.98
2023-01-30T02:42:28.653Z,81.16
2023-01-30T02:43:52.053Z,81.27
2023-01-30T02:45:01.385Z,81.46
2023-01-30T02:46:08.893Z,81.33
2023-01-30T02:47:42.340Z,81.74
2023-01-30T02:48:49.388Z,81.84
2023-01-30T02:49:48.816Z,81.76
2023-01-30T02:50:54.745Z,81.76
2023-01-30T02:51:50.204Z,81.52
2023-01-30T02:52:43.072Z,81.72
2023-01-30T02:53:36.543Z,81.78
2023-01-30T02:54:29.415Z,81.85
2023-01-30T02:55:27.147Z,82.03
2023-01-30T02:56:19.069Z,81.89
2023-01-30T02:57:25.561Z,81.98
2023-01-30T02:58:26.516Z,81.93
2023-01-30T02:59:25.649Z,81.98
2023-01-30T03:00:32.931Z,81.73
2023-01-30T03:01:37.823Z,81.82
2023-01-30T03:03:08.060Z,81.75
2023-01-30T03:04:31.300Z,81.23
2023-01-30T03:05:46.078Z,81.68
2023-01-30T03:07:03.895Z,81.38
2023-01-30T03:08:28.124Z,81.62
2023-01-30T03:09:44.288Z,81.82
2023-01-30T03:11:04.410Z,81.23
2023-01-30T03:12:05.248Z,81.47
2023-01-30T03:13:27.092Z,81.58
2023-01-30T03:14:42.740Z,81.88
2023-01-30T03:15:50.066Z,81.53
2023-01-30T03:16:41.935Z,81.32
2023-01-30T03:17:36.559Z,81.52
2023-01-30T03:18:28.432Z,81.35
2023-01-30T03:19:21.152Z,81.45
2023-01-30T03:20:15.491Z,81.50
2023-01-30T03:21:08.269Z,81.82
2023-01-30T03:22:00.496Z,81.52
2023-01-30T03:22:54.468Z,81.50
2023-01-30T03:23:47.244Z,81.41
2023-01-30T03:24:38.746Z,81.46
2023-01-30T03:25:32.363Z,81.65
2023-01-30T03:26:30.552Z,81.39
2023-01-30T03:27:22.973Z,81.39
2023-01-30T03:28:22.521Z,81.38
2023-01-30T03:29:15.082Z,81.55
2023-01-30T03:30:07.795Z,81.82
2023-01-30T03:31:00.363Z,81.83
2023-01-30T03:31:51.992Z,81.64
2023-01-30T03:32:43.700Z,82.08
2023-01-30T03:33:35.283Z,81.82
2023-01-30T03:34:26.775Z,81.63
2023-01-30T03:35:18.902Z,81.67
2023-01-30T03:36:12.356Z,81.55
2023-01-30T03:37:06.144Z,81.59
2023-01-30T03:38:00.349Z,81.78
2023-01-30T03:38:52.389Z,81.78
2023-01-30T03:39:45.266Z,81.64
2023-01-30T03:40:40.129Z,81.59
2023-01-30T03:41:32.200Z,81.45
2023-01-30T03:42:26.029Z,81.20
2023-01-30T03:43:18.569Z,80.94
2023-01-30T03:44:10.166Z,81.31
2023-01-30T03:45:01.827Z,81.50
2023-01-30T03:45:53.417Z,81.22
2023-01-30T03:46:45.711Z,81.20
2023-01-30T03:47:37.816Z,81.25
2023-01-30T03:48:30.611Z,80.97
2023-01-30T03:49:37.487Z,81.03
2023-01-30T03:50:29.650Z,81.26
2023-01-30T03:51:21.613Z,81.01
2023-01-30T03:52:13.226Z,80.89
2023-01-30T03:53:04.694Z,81.04
2023-01-30T03:53:56.321Z,80.82
2023-01-30T03:54:48.042Z,80.91
2023-01-30T03:55:40.447Z,81.08
2023-01-30T03:56:32.167Z,80.90
2023-01-30T03:57:24.536Z,81.17
2023-01-30T03:58:16.199Z,81.10
2023-01-30T03:59:09.166Z,81.30
2023-01-30T04:00:06.971Z,81.18
2023-01-30T04:01:07.728Z,81.05
2023-01-30T04:01:59.359Z,80.84
2023-01-30T04:02:51.244Z,80.93
2023-01-30T04:03:43.062Z,80.85
2023-01-30T04:04:35.259Z,80.87
2023-01-30T04:05:29.564Z,80.80
2023-01-30T04:06:27.960Z,81.03
2023-01-30T04:07:20.794Z,81.03
2023-01-30T04:08:15.157Z,81.35
2023-01-30T04:09:06.928Z,81.21
2023-01-30T04:10:09.671Z,81.39
2023-01-30T04:11:01.442Z,80.91
2023-01-30T04:11:56.606Z,80.80
2023-01-30T04:12:49.834Z,81.16
2023-01-30T04:13:42.465Z,81.19
2023-01-30T04:14:35.150Z,81.01
2023-01-30T04:15:40.783Z,80.86
2023-01-30T04:16:49.400Z,80.94
2023-01-30T04:18:06.226Z,81.86
2023-01-30T04:19:13.762Z,81.32
2023-01-30T04:20:06.827Z,81.61
2023-01-30T04:21:00.362Z,81.75
2023-01-30T04:22:00.355Z,81.88
2023-01-30T04:22:51.886Z,82.29
2023-01-30T04:23:43.505Z,81.93
2023-01-30T04:24:35.009Z,81.76
2023-01-30T04:25:26.624Z,81.59
2023-01-30T04:26:18.168Z,81.76
2023-01-30T04:27:10.358Z,81.63
2023-01-30T04:28:08.498Z,81.58
2023-01-30T04:29:02.320Z,81.76
2023-01-30T04:29:54.910Z,82.12
2023-01-30T04:30:46.447Z,82.57
2023-01-30T04:32:07.207Z,82.56
2023-01-30T04:33:00.980Z,82.21
2023-01-30T04:33:52.406Z,81.91
2023-01-30T04:34:45.049Z,81.69
2023-01-30T04:35:36.520Z,81.86
2023-01-30T04:36:29.293Z,81.58
2023-01-30T04:37:20.810Z,81.55
2023-01-30T04:38:13.526Z,81.75
2023-01-30T04:39:05.201Z,81.95
2023-01-30T04:39:57.583Z,81.99
2023-01-30T04:40:55.093Z,81.64
2023-01-30T04:41:47.854Z,81.93
2023-01-30T04:42:40.233Z,81.59
2023-01-30T04:44:07.188Z,81.77
2023-01-30T04:45:14.319Z,81.68
2023-01-30T04:46:06.116Z,81.90
2023-01-30T04:46:57.784Z,81.92
2023-01-30T04:47:49.435Z,82.21
2023-01-30T04:48:41.137Z,82.40
2023-01-30T04:49:32.616Z,82.53
2023-01-30T04:50:25.232Z,82.57
2023-01-30T04:51:16.886Z,82.45
2023-01-30T04:52:09.048Z,82.65
2023-01-30T04:53:01.359Z,82.31
2023-01-30T04:53:53.042Z,82.44
2023-01-30T04:54:44.651Z,82.47
2023-01-30T04:55:37.779Z,82.93
2023-01-30T04:56:29.378Z,83.02
2023-01-30T04:57:21.100Z,82.78
2023-01-30T04:58:12.800Z,82.73
2023-01-30T04:59:04.449Z,82.98
2023-01-30T05:00:01.595Z,83.21
2023-01-30T05:00:53.239Z,83.49
2023-01-30T05:01:44.976Z,83.60
2023-01-30T05:02:36.493Z,83.33
2023-01-30T05:03:28.009Z,83.54
2023-01-30T05:04:19.519Z,83.37
2023-01-30T05:05:10.986Z,83.29
2023-01-30T05:06:02.426Z,83.12
2023-01-30T05:06:54.178Z,83.17
2023-01-30T05:07:49.486Z,83.35
2023-01-30T05:08:46.591Z,83.26
2023-01-30T05:09:38.485Z,83.57
2023-01-30T05:10:30.074Z,83.39
2023-01-30T05:11:23.563Z,83.49
2023-01-30T05:12:15.091Z,83.55
2023-01-30T05:13:07.159Z,83.55
2023-01-30T05:13:59.394Z,83.80
2023-01-30T05:14:51.044Z,84.15
2023-01-30T05:15:42.448Z,84.10
2023-01-30T05:16:33.879Z,84.46
2023-01-30T05:17:25.438Z,84.52
2023-01-30T05:18:17.372Z,84.83
2023-01-30T05:19:13.082Z,84.86
2023-01-30T05:20:07.243Z,84.46
2023-01-30T05:21:31.520Z,84.71
2023-01-30T05:22:22.982Z,84.75
2023-01-30T05:23:14.443Z,84.97
2023-01-30T05:24:06.408Z,84.91
2023-01-30T05:24:57.809Z,85.09
2023-01-30T05:25:49.257Z,85.48
2023-01-30T05:26:40.911Z,85.44
2023-01-30T05:27:32.591Z,85.78
2023-01-30T05:28:24.328Z,86.07
2023-01-30T05:29:15.975Z,85.75
2023-01-30T05:30:08.528Z,85.72
2023-01-30T05:31:05.587Z,86.05
2023-01-30T05:31:57.419Z,86.16
2023-01-30T05:32:49.043Z,86.44
2023-01-30T05:33:41.362Z,86.47
2023-01-30T05:34:32.913Z,86.65
2023-01-30T05:35:24.546Z,86.96
2023-01-30T05:36:19.326Z,86.58
2023-01-30T05:37:12.474Z,86.86
2023-01-30T05:38:04.263Z,86.92
2023-01-30T05:38:55.936Z,87.24
2023-01-30T05:39:47.901Z,87.05
2023-01-30T05:40:39.346Z,87.23
2023-01-30T05:41:30.880Z,87.32
2023-01-30T05:42:22.438Z,87.16
2023-01-30T05:43:13.841Z,87.12
2023-01-30T05:44:05.740Z,87.50
2023-01-30T05:44:57.261Z,87.51
2023-01-30T05:45:55.111Z,87.74
2023-01-30T05:46:46.575Z,87.50
2023-01-30T05:47:38.019Z,87.87
2023-01-30T05:48:29.844Z,87.63
2023-01-30T05:49:21.773Z,87.42
2023-01-30T05:50:13.472Z,87.43
2023-01-30T05:51:05.260Z,87.42
2023-01-30T05:51:57.230Z,87.59
2023-01-30T05:52:48.887Z,87.75
2023-01-30T05:53:40.290Z,87.82
2023-01-30T05:54:31.962Z,87.59
2023-01-30T05:55:23.638Z,87.64
2023-01-30T05:56:16.180Z,87.05
2023-01-30T05:57:07.610Z,86.90
2023-01-30T05:57:59.000Z,87.43
2023-01-30T05:58:55.304Z,87.61
2023-01-30T05:59:47.036Z,87.71
2023-01-30T06:00:38.852Z,87.52
2023-01-30T06:01:30.693Z,87.55
2023-01-30T06:02:22.164Z,87.38
2023-01-30T06:03:13.874Z,87.75
2023-01-30T06:04:05.597Z,87.30
2023-01-30T06:04:57.380Z,87.85
2023-01-30T06:05:48.804Z,88.03
2023-01-30T06:06:40.235Z,87.71
2023-01-30T06:07:32.121Z,87.90
2023-01-30T06:08:24.027Z,87.85
2023-01-30T06:09:15.643Z,88.27
2023-01-30T06:10:07.371Z,87.71
2023-01-30T06:11:08.519Z,87.60
2023-01-30T06:11:59.988Z,87.21
2023-01-30T06:12:51.438Z,87.37
2023-01-30T06:13:43.917Z,86.99
2023-01-30T06:14:35.628Z,87.01
2023-01-30T06:15:27.461Z,87.26
2023-01-30T06:16:19.711Z,86.80
2023-01-30T06:17:11.284Z,86.90
2023-01-30T06:18:03.027Z,87.34
2023-01-30T06:18:54.777Z,87.20
2023-01-30T06:19:46.657Z,87.43
2023-01-30T06:20:38.219Z,87.38
2023-01-30T06:21:29.668Z,87.31
2023-01-30T06:22:21.101Z,87.43
2023-01-30T06:23:12.495Z,87.19
2023-01-30T06:24:04.246Z,87.14
2023-01-30T06:24:55.794Z,87.44
2023-01-30T06:25:49.555Z,87.22
2023-01-30T06:26:41.126Z,87.81
2023-01-30T06:27:32.730Z,87.59
2023-01-30T06:28:25.727Z,87.57
2023-01-30T06:29:17.348Z,87.67
2023-01-30T06:30:09.623Z,88.06
2023-01-30T06:31:01.705Z,88.16
2023-01-30T06:31:53.486Z,88.02
2023-01-30T06:32:44.993Z,87.77
2023-01-30T06:33:36.450Z,87.84
2023-01-30T06:34:27.894Z,87.72
2023-01-30T06:35:19.818Z,87.80
2023-01-30T06:36:11.565Z,87.59
2023-01-30T06:37:03.217Z,87.68
2023-01-30T06:37:54.625Z,87.81
2023-01-30T06:38:46.141Z,87.89
2023-01-30T06:39:37.565Z,87.50
2023-01-30T06:40:29.269Z,87.45
2023-01-30T06:41:21.013Z,87.70
2023-01-30T06:42:12.576Z,87.48
2023-01-30T06:43:04.703Z,87.75
2023-01-30T06:43:56.250Z,87.63
2023-01-30T06:44:47.729Z,88.23
2023-01-30T06:45:40.081Z,87.85
2023-01-30T06:46:31.523Z,88.07
2023-01-30T06:47:23.290Z,88.18
2023-01-30T06:48:14.901Z,88.01
2023-01-30T06:49:06.444Z,88.25
2023-01-30T06:49:58.143Z,87.93
2023-01-30T06:50:49.844Z,87.81
2023-01-30T06:51:41.508Z,87.83
2023-01-30T06:52:33.044Z,87.98
2023-01-30T06:53:30.219Z,87.76
2023-01-30T06:54:21.889Z,87.99
2023-01-30T06:55:16.399Z,88.17
2023-01-30T06:56:08.183Z,88.11
2023-01-30T06:56:59.624Z,87.86
2023-01-30T06:58:06.862Z,87.59
2023-01-30T06:58:58.539Z,87.87
2023-01-30T06:59:50.188Z,87.64
2023-01-30T07:00:43.244Z,87.64
2023-01-30T07:01:35.011Z,88.03
2023-01-30T07:02:35.099Z,88.40
2023-01-30T07:03:26.862Z,88.13
2023-01-30T07:04:18.621Z,88.06
2023-01-30T07:05:11.509Z,88.06
2023-01-30T07:06:03.110Z,88.06
2023-01-30T07:06:54.834Z,87.87
2023-01-30T07:07:47.397Z,87.95
2023-01-30T07:08:40.713Z,87.70
2023-01-30T07:09:32.116Z,88.31
2023-01-30T07:10:24.259Z,88.14
2023-01-30T07:11:15.949Z,87.90
2023-01-30T07:12:07.467Z,88.12
2023-01-30T07:12:59.760Z,87.88
2023-01-30T07:13:51.404Z,87.80
2023-01-30T07:14:43.119Z,87.83
2023-01-30T07:15:34.659Z,88.16
2023-01-30T07:16:29.346Z,88.01
2023-01-30T07:17:22.473Z,88.25
2023-01-30T07:18:14.249Z,88.63
2023-01-30T07:19:05.865Z,88.50
2023-01-30T07:19:57.318Z,88.65
2023-01-30T07:20:49.510Z,88.91
2023-01-30T07:21:41.119Z,88.71
2023-01-30T07:22:33.445Z,88.48
2023-01-30T07:23:25.138Z,88.61
2023-01-30T07:24:16.550Z,88.67
2023-01-30T07:25:09.128Z,88.97
2023-01-30T07:26:05.131Z,88.85
2023-01-30T07:26:57.159Z,89.06
2023-01-30T07:27:56.214Z,89.00
2023-01-30T07:28:47.764Z,89.06
2023-01-30T07:29:40.435Z,89.13
2023-01-30T07:30:35.884Z,89.14
2023-01-30T07:31:27.408Z,89.42
2023-01-30T07:32:20.122Z,89.84
2023-01-30T07:33:20.311Z,89.47
2023-01-30T07:34:11.833Z,89.72
2023-01-30T07:35:05.835Z,89.53
2023-01-30T07:35:57.731Z,89.51
2023-01-30T07:36:49.227Z,90.14
2023-01-30T07:37:41.660Z,90.14
2023-01-30T07:38:33.292Z,90.45
2023-01-30T07:39:24.894Z,90.65
2023-01-30T07:40:16.916Z,90.86
2023-01-30T07:41:08.580Z,90.89
2023-01-30T07:42:01.506Z,91.07
2023-01-30T07:43:02.273Z,91.09
2023-01-30T07:45:03.118Z,91.41
2023-01-30T07:45:55.038Z,91.58
2023-01-30T07:46:46.513Z,91.61
2023-01-30T07:47:38.106Z,91.89
2023-01-30T07:48:29.559Z,91.79
2023-01-30T07:49:21.426Z,91.99
2023-01-30T07:50:12.863Z,92.25
2023-01-30T07:51:04.368Z,92.34
2023-01-30T07:51:55.829Z,92.21
2023-01-30T07:52:47.337Z,92.20
2023-01-30T07:53:38.877Z,92.36
2023-01-30T07:54:30.378Z,92.28
2023-01-30T07:55:21.892Z,92.22
2023-01-30T07:56:18.512Z,92.28
2023-01-30T07:57:10.053Z,92.61
2023-01-30T07:58:01.947Z,92.50
2023-01-30T07:58:57.154Z,92.80
2023-01-30T07:59:48.575Z,92.61
2023-01-30T08:00:40.949Z,92.64
2023-01-30T08:01:33.142Z,92.88
2023-01-30T08:02:24.697Z,92.64
2023-01-30T08:03:17.406Z,92.94
2023-01-30T08:04:08.945Z,92.73
2023-01-30T08:05:00.653Z,93.01
2023-01-30T08:05:54.029Z,92.82
2023-01-30T08:06:45.783Z,92.94
2023-01-30T08:07:37.230Z,92.66
2023-01-30T08:08:29.219Z,92.86
2023-01-30T08:09:20.979Z,92.77
2023-01-30T08:10:12.493Z,92.79
2023-01-30T08:11:04.005Z,92.53
2023-01-30T08:11:55.697Z,92.52
2023-01-30T08:12:50.784Z,92.09
2023-01-30T08:13:42.245Z,92.12
2023-01-30T08:14:33.795Z,92.22
2023-01-30T08:15:25.422Z,92.32
2023-01-30T08:16:17.099Z,92.17
2023-01-30T08:17:08.611Z,92.24
2023-01-30T08:18:00.392Z,92.46
2023-01-30T08:18:51.925Z,91.87
2023-01-30T08:19:43.600Z,91.73
2023-01-30T08:20:36.089Z,91.99
2023-01-30T08:21:28.322Z,91.98
2023-01-30T08:22:19.942Z,91.64
2023-01-30T08:23:12.485Z,91.51
2023-01-30T08:24:04.338Z,91.58
2023-01-30T08:24:55.923Z,91.47
2023-01-30T08:25:47.413Z,91.57
2023-01-30T08:26:39.333Z,91.57
2023-01-30T08:27:31.009Z,91.60
2023-01-30T08:28:23.147Z,91.34
2023-01-30T08:29:14.853Z,91.24
2023-01-30T08:30:06.965Z,91.48
2023-01-30T08:30:59.281Z,91.25
2023-01-30T08:31:51.414Z,90.70
2023-01-30T08:32:46.813Z,91.10
2023-01-30T08:33:38.638Z,90.93
2023-01-30T08:34:30.366Z,91.24
2023-01-30T08:35:22.062Z,90.98
2023-01-30T08:36:13.865Z,90.38
2023-01-30T08:37:08.496Z,90.15
2023-01-30T08:38:05.687Z,90.33
2023-01-30T08:38:57.164Z,90.16
2023-01-30T08:39:48.614Z,89.99
2023-01-30T08:40:40.420Z,89.65
2023-01-30T08:41:31.927Z,89.45
2023-01-30T08:42:23.506Z,89.33
2023-01-30T08:43:15.048Z,89.18
2023-01-30T08:44:06.625Z,89.30
2023-01-30T08:44:58.157Z,89.27
2023-01-30T08:45:53.460Z,88.77
2023-01-30T08:46:45.067Z,88.13
2023-01-30T08:47:36.936Z,87.97
2023-01-30T08:48:34.126Z,88.17
2023-01-30T08:49:31.623Z,87.91
2023-01-30T08:50:23.074Z,88.00
2023-01-30T08:51:14.957Z,87.55
2023-01-30T08:52:06.678Z,86.92
2023-01-30T08:53:02.529Z,86.76
2023-01-30T08:53:54.244Z,86.84
2023-01-30T08:54:45.939Z,86.27
2023-01-30T08:55:37.478Z,85.96
2023-01-30T08:56:28.952Z,86.27
2023-01-30T08:57:20.660Z,85.80
2023-01-30T08:58:12.349Z,85.65
2023-01-30T08:59:04.102Z,85.43
2023-01-30T08:59:55.838Z,85.54
2023-01-30T09:00:49.404Z,85.50
2023-01-30T09:01:41.181Z,85.73
2023-01-30T09:02:32.972Z,85.72
2023-01-30T09:03:24.493Z,85.45
2023-01-30T09:04:17.105Z,85.02
2023-01-30T09:05:10.941Z,84.33
2023-01-30T09:06:02.705Z,84.71
2023-01-30T09:06:54.827Z,84.01
2023-01-30T09:07:46.304Z,84.61
2023-01-30T09:08:37.942Z,83.71
2023-01-30T09:09:30.376Z,83.85
2023-01-30T09:10:24.391Z,83.11
2023-01-30T09:11:17.688Z,82.97
2023-01-30T09:12:09.248Z,83.05
2023-01-30T09:13:00.811Z,83.05
2023-01-30T09:13:52.317Z,82.90
2023-01-30T09:14:43.825Z,82.73
2023-01-30T09:15:35.331Z,82.94
2023-01-30T09:16:26.936Z,82.87
2023-01-30T09:17:18.845Z,82.59
2023-01-30T09:18:10.251Z,82.45
2023-01-30T09:19:01.727Z,82.75
2023-01-30T09:19:53.673Z,82.41
2023-01-30T09:20:46.165Z,82.62
2023-01-30T09:21:38.972Z,82.76
2023-01-30T09:22:30.575Z,82.21
2023-01-30T09:23:22.074Z,81.21
2023-01-30T09:24:13.691Z,80.75
2023-01-30T09:25:08.085Z,80.68
2023-01-30T09:26:00.385Z,81.01
2023-01-30T09:26:57.699Z,80.91
2023-01-30T09:27:50.544Z,81.47
2023-01-30T09:28:42.202Z,81.27
2023-01-30T09:29:33.887Z,80.74
2023-01-30T09:30:25.964Z,80.05
2023-01-30T09:31:17.743Z,79.86
2023-01-30T09:32:09.296Z,79.63
2023-01-30T09:33:00.767Z,79.31
2023-01-30T09:33:52.387Z,79.12
2023-01-30T09:34:44.025Z,78.85
2023-01-30T09:35:35.607Z,78.66
2023-01-30T09:36:27.227Z,78.93
2023-01-30T09:37:18.976Z,78.18
2023-01-30T09:38:10.522Z,77.78
2023-01-30T09:39:02.008Z,77.58
2023-01-30T09:39:54.958Z,77.42
2023-01-30T09:41:08.021Z,77.66
2023-01-30T09:42:25.908Z,76.35
2023-01-30T09:43:17.289Z,76.63
2023-01-30T09:44:46.373Z,75.47
2023-01-30T09:45:45.490Z,75.19
2023-01-30T09:46:50.416Z,75.96
2023-01-30T09:48:10.982Z,75.59
2023-01-30T09:49:14.389Z,75.61
2023-01-30T09:50:21.330Z,75.36
2023-01-30T09:51:44.296Z,75.13
2023-01-30T09:52:59.734Z,72.85
2023-01-30T09:54:20.146Z,73.19
2023-01-30T09:55:19.750Z,72.04
2023-01-30T09:56:11.378Z,72.45
2023-01-30T09:57:21.284Z,73.05
2023-01-30T09:58:19.923Z,73.34
2023-01-30T09:59:25.078Z,73.36
2023-01-30T10:00:24.567Z,72.87
2023-01-30T10:01:31.777Z,72.91
2023-01-30T10:03:03.420Z,73.16
2023-01-30T10:04:11.726Z,72.85
2023-01-30T10:05:05.123Z,72.90
2023-01-30T10:06:02.510Z,72.36
2023-01-30T10:07:18.080Z,71.99
2023-01-30T10:08:40.332Z,71.99
2023-01-30T10:10:05.036Z,72.85
2023-01-30T10:11:19.850Z,71.66
2023-01-30T10:12:31.703Z,71.74
2023-01-30T10:13:29.106Z,72.47
2023-01-30T10:14:46.341Z,71.09
2023-01-30T10:16:10.552Z,71.16
2023-01-30T10:17:23.151Z,69.88
2023-01-30T10:18:46.280Z,69.45
2023-01-30T10:20:20.883Z,69.04
2023-01-30T10:21:42.727Z,69.19
2023-01-30T10:22:53.745Z,68.34
2023-01-30T10:24:05.570Z,68.31
2023-01-30T10:25:15.539Z,68.56
2023-01-30T10:26:16.486Z,68.73
2023-01-30T10:27:17.496Z,68.58
2023-01-30T10:28:16.402Z,68.05
2023-01-30T10:29:14.005Z,68.00
2023-01-30T10:30:10.374Z,67.82
2023-01-30T10:31:13.587Z,68.25
2023-01-30T10:32:11.396Z,69.26
2023-01-30T10:33:06.081Z,67.71
2023-01-30T10:34:04.109Z,68.15
2023-01-30T10:35:14.526Z,68.69
2023-01-30T10:36:20.828Z,67.66
2023-01-30T10:37:30.884Z,67.63
2023-01-30T10:38:35.517Z,68.43
2023-01-30T10:39:55.208Z,68.53
2023-01-30T10:41:00.845Z,67.76
2023-01-30T10:42:08.227Z,68.76
2023-01-30T10:43:19.847Z,67.64
2023-01-30T10:44:14.849Z,67.90
2023-01-30T10:45:15.055Z,67.58
2023-01-30T10:46:29.322Z,67.83
2023-01-30T10:47:47.512Z,67.37
2023-01-30T10:49:02.126Z,68.10
2023-01-30T10:50:09.447Z,67.52
2023-01-30T10:51:19.392Z,67.21
2023-01-30T10:52:27.446Z,67.11
2023-01-30T10:53:36.142Z,66.28
2023-01-30T10:54:48.548Z,67.17
2023-01-30T10:55:52.445Z,67.84
2023-01-30T10:57:04.063Z,67.10
2023-01-30T10:58:31.309Z,67.29
2023-01-30T10:59:45.506Z,67.80
2023-01-30T11:01:05.993Z,67.26
2023-01-30T11:02:25.541Z,67.43
2023-01-30T11:04:01.245Z,67.97
2023-01-30T11:05:02.759Z,68.00
2023-01-30T11:06:01.397Z,68.18
2023-01-30T11:06:55.959Z,67.98
2023-01-30T11:07:49.098Z,68.15
2023-01-30T11:08:40.679Z,67.98
2023-01-30T11:09:42.858Z,67.53
2023-01-30T11:10:34.959Z,67.26
2023-01-30T11:11:52.284Z,67.94
2023-01-30T11:12:43.905Z,67.62
2023-01-30T11:13:35.562Z,67.58
2023-01-30T11:14:27.097Z,66.05
2023-01-30T11:15:19.024Z,66.67
2023-01-30T11:16:11.692Z,66.78
2023-01-30T11:17:03.822Z,67.03
2023-01-30T11:18:40.464Z,66.68
2023-01-30T11:19:22.800Z,66.62
2023-01-30T11:20:16.379Z,66.47
2023-01-30T11:21:19.270Z,67.38
2023-01-30T11:22:15.316Z,67.65
2023-01-30T11:23:24.000Z,67.05
2023-01-30T11:24:24.844Z,67.38
2023-01-30T11:25:21.068Z,66.38
2023-01-30T11:26:41.503Z,66.53
2023-01-30T11:27:44.465Z,66.98
2023-01-30T11:28:41.816Z,67.19
2023-01-30T11:29:35.453Z,66.91
2023-01-30T11:30:35.825Z,66.89
2023-01-30T11:31:40.844Z,66.87
2023-01-30T11:32:33.181Z,66.68
2023-01-30T11:33:36.586Z,66.46
2023-01-30T11:34:28.156Z,66.46
2023-01-30T11:35:27.554Z,66.93
2023-01-30T11:36:31.209Z,66.80
2023-01-30T11:37:32.455Z,66.86
2023-01-30T11:38:33.498Z,66.43
2023-01-30T11:39:29.352Z,66.23
2023-01-30T11:40:30.979Z,65.97
2023-01-30T11:41:23.326Z,66.23
2023-01-30T11:42:14.800Z,66.49
2023-01-30T11:43:12.826Z,66.48
2023-01-30T11:44:05.597Z,66.69
2023-01-30T11:45:16.091Z,66.22
2023-01-30T11:46:13.855Z,65.92
2023-01-30T11:47:17.665Z,65.78
2023-01-30T11:48:33.238Z,66.04
2023-01-30T11:50:03.567Z,65.81
2023-01-30T11:51:04.664Z,65.85
2023-01-30T11:51:56.415Z,65.65
2023-01-30T11:52:48.672Z,65.84
2023-01-30T11:53:50.880Z,65.20
2023-01-30T11:54:46.033Z,65.77
2023-01-30T11:55:38.513Z,66.27
2023-01-30T11:56:36.742Z,66.47
2023-01-30T11:57:28.766Z,66.04
2023-01-30T11:58:20.459Z,65.72
2023-01-30T11:59:34.783Z,65.19
2023-01-30T12:00:39.553Z,65.27
2023-01-30T12:01:37.200Z,65.17
2023-01-30T12:02:29.641Z,65.66
2023-01-30T12:03:25.775Z,65.89
2023-01-30T12:04:18.442Z,65.25
2023-01-30T12:05:28.297Z,65.29
2023-01-30T12:06:35.968Z,64.96
2023-01-30T12:07:30.276Z,65.40
2023-01-30T12:08:40.614Z,64.96
2023-01-30T12:09:35.753Z,64.68
2023-01-30T12:10:31.514Z,64.78
2023-01-30T12:11:42.482Z,65.32